Time;durP1;ratioP1;P1;durP2;ratioP2;P2;SDS_P1;SDS_P2;PMS_P1;PMS_P2;Temp;Humidity;BMP_temperature;BMP_pressure;BME280_temperature;BME280_humidity;BME280_pressure;Samples;Min_cycle;Max_cycle;Signal;HPM_P1;HPM_P2
2023/05/24 00:00:22;;;;;;;0.90;0.60;;;15.00;99.90;;;;;;5097167;28;20430;-54
2023/05/24 00:02:50;;;;;;;1.15;0.70;;;15.00;99.90;;;;;;5097495;28;20434;-53
2023/05/24 00:05:18;;;;;;;1.30;0.60;;;15.00;99.90;;;;;;5097137;28;20846;-55
2023/05/24 00:07:45;;;;;;;1.80;0.80;;;14.90;99.90;;;;;;5097076;28;20863;-52
2023/05/24 00:10:12;;;;;;;1.20;0.80;;;14.90;99.90;;;;;;5097036;28;20842;-55
2023/05/24 00:12:39;;;;;;;1.70;0.70;;;14.90;99.90;;;;;;5096949;28;20413;-55
2023/05/24 00:15:08;;;;;;;1.67;0.70;;;14.90;99.90;;;;;;5096434;28;20429;-54
2023/05/24 00:17:39;;;;;;;1.40;0.70;;;14.80;99.90;;;;;;5096956;28;20425;-55
2023/05/24 00:20:11;;;;;;;1.00;0.60;;;14.80;99.90;;;;;;5095760;28;20997;-54
2023/05/24 00:22:38;;;;;;;1.90;0.80;;;14.80;99.90;;;;;;5096448;28;20430;-56
2023/05/24 00:25:06;;;;;;;0.90;0.70;;;14.80;99.90;;;;;;5096918;28;20849;-54
2023/05/24 00:27:35;;;;;;;1.30;0.70;;;14.70;99.90;;;;;;5096160;28;20428;-55
2023/05/24 00:30:02;;;;;;;1.65;0.70;;;14.60;99.90;;;;;;5095914;28;20434;-56
2023/05/24 00:32:29;;;;;;;1.00;0.70;;;14.70;99.90;;;;;;5096491;28;20814;-55
2023/05/24 00:34:56;;;;;;;1.50;0.60;;;14.70;99.90;;;;;;5096360;28;20914;-55
2023/05/24 00:37:25;;;;;;;1.70;0.80;;;14.90;99.90;;;;;;5096742;28;20475;-55
2023/05/24 00:39:52;;;;;;;1.08;0.70;;;14.80;99.90;;;;;;5096552;28;20482;-55
2023/05/24 00:42:19;;;;;;;1.30;0.70;;;14.80;99.90;;;;;;5095209;28;20440;-57
2023/05/24 00:44:46;;;;;;;2.10;0.80;;;14.70;99.90;;;;;;5095548;28;20786;-54
2023/05/24 00:47:13;;;;;;;1.50;0.80;;;14.50;99.90;;;;;;5095738;28;20422;-54
2023/05/24 00:49:40;;;;;;;1.50;0.90;;;14.50;99.90;;;;;;5095872;28;20429;-51
2023/05/24 00:52:08;;;;;;;1.40;0.75;;;14.50;99.90;;;;;;5096134;28;20471;-55
2023/05/24 00:54:39;;;;;;;1.30;0.80;;;14.50;99.90;;;;;;5096074;28;20456;-55
2023/05/24 00:57:07;;;;;;;1.55;0.80;;;14.60;99.90;;;;;;5096003;28;20418;-53
2023/05/24 00:59:34;;;;;;;1.40;0.70;;;14.60;99.90;;;;;;5096092;28;20434;-52
2023/05/24 01:02:01;;;;;;;1.70;0.80;;;14.60;99.90;;;;;;5095832;28;20434;-55
2023/05/24 01:04:28;;;;;;;2.33;0.70;;;14.70;99.90;;;;;;5095835;28;20464;-55
2023/05/24 01:07:09;;;;;;;1.30;0.80;;;14.70;99.90;;;;;;5094072;28;20417;-53
2023/05/24 01:09:50;;;;;;;1.10;0.80;;;14.70;99.90;;;;;;5095058;28;20562;-54
2023/05/24 01:12:28;;;;;;;1.20;0.77;;;14.60;99.90;;;;;;5096069;28;20481;-55
2023/05/24 01:15:04;;;;;;;2.63;0.80;;;14.50;99.90;;;;;;5096040;28;20433;-54
2023/05/24 01:17:37;;;;;;;1.10;0.77;;;14.40;99.90;;;;;;5095772;28;20864;-55
2023/05/24 01:20:08;;;;;;;1.35;0.70;;;14.50;99.90;;;;;;5096094;28;20903;-55
2023/05/24 01:23:05;;;;;;;1.55;0.70;;;14.50;99.90;;;;;;5095197;28;20580;-55
2023/05/24 01:25:53;;;;;;;1.73;0.90;;;14.40;99.90;;;;;;5085826;28;20745;-54
2023/05/24 01:28:23;;;;;;;2.47;0.80;;;14.30;99.90;;;;;;5095204;28;20729;-54
2023/05/24 01:30:51;;;;;;;2.90;0.70;;;14.40;99.90;;;;;;5095802;28;20414;-56
2023/05/24 01:33:18;;;;;;;1.50;0.70;;;14.40;99.90;;;;;;5095824;28;20505;-52
2023/05/24 01:35:45;;;;;;;1.80;0.70;;;14.50;99.90;;;;;;5096075;28;20484;-53
2023/05/24 01:38:13;;;;;;;1.98;0.80;;;14.50;99.90;;;;;;5095204;28;20475;-55
2023/05/24 01:40:41;;;;;;;1.58;0.70;;;14.50;99.90;;;;;;5094918;28;20843;-54
2023/05/24 01:43:17;;;;;;;1.60;0.82;;;14.40;99.90;;;;;;5094052;28;20714;-55
2023/05/24 01:45:55;;;;;;;2.40;0.80;;;14.50;99.90;;;;;;5095052;28;20432;-51
2023/05/24 01:48:31;;;;;;;1.85;0.70;;;14.60;99.90;;;;;;5094957;28;20421;-56
2023/05/24 01:50:59;;;;;;;1.30;0.80;;;14.60;99.90;;;;;;5094164;28;21057;-56
2023/05/24 01:53:33;;;;;;;1.88;0.70;;;14.60;99.90;;;;;;5095479;28;20505;-54
2023/05/24 01:56:05;;;;;;;1.50;0.80;;;14.40;99.90;;;;;;5095214;28;20421;-51
2023/05/24 01:58:33;;;;;;;2.40;0.80;;;14.40;99.90;;;;;;5095090;28;20483;-52
2023/05/24 02:01:02;;;;;;;1.67;0.70;;;14.40;99.90;;;;;;5094703;28;20433;-53
2023/05/24 02:03:29;;;;;;;2.30;0.80;;;14.40;99.90;;;;;;5094938;28;20434;-50
2023/05/24 02:05:56;;;;;;;1.30;0.70;;;14.30;99.90;;;;;;5094937;28;20477;-54
2023/05/24 02:08:23;;;;;;;1.30;0.73;;;14.40;99.90;;;;;;5094960;28;20418;-54
2023/05/24 02:10:50;;;;;;;2.38;0.90;;;14.30;99.90;;;;;;5095142;28;20421;-56
2023/05/24 02:13:18;;;;;;;2.70;0.80;;;14.30;99.90;;;;;;5095339;28;20414;-54
2023/05/24 02:15:46;;;;;;;2.30;0.80;;;14.20;99.90;;;;;;5095628;28;20709;-55
2023/05/24 02:18:17;;;;;;;1.87;0.80;;;14.30;99.90;;;;;;5094815;28;20414;-56
2023/05/24 02:20:44;;;;;;;2.40;0.80;;;14.30;99.90;;;;;;5094653;28;20426;-54
2023/05/24 02:23:11;;;;;;;1.73;0.80;;;14.20;99.90;;;;;;5098160;28;20452;-56
2023/05/24 02:25:38;;;;;;;2.17;0.90;;;14.30;99.90;;;;;;5098329;28;20776;-55
2023/05/24 02:28:05;;;;;;;2.63;0.80;;;14.30;99.90;;;;;;5098725;28;20409;-56
2023/05/24 02:30:32;;;;;;;2.40;0.80;;;14.20;99.90;;;;;;5097944;28;21076;-53
2023/05/24 02:32:59;;;;;;;2.17;0.80;;;14.30;99.90;;;;;;5098357;28;20879;-54
2023/05/24 02:35:27;;;;;;;1.60;0.80;;;14.30;99.90;;;;;;5098989;28;20433;-55
2023/05/24 02:37:57;;;;;;;2.20;0.70;;;14.30;99.90;;;;;;5098774;28;20467;-50
2023/05/24 02:40:24;;;;;;;3.00;0.90;;;14.20;99.90;;;;;;5098492;28;20852;-50
2023/05/24 02:42:51;;;;;;;2.50;0.80;;;14.20;99.90;;;;;;5098038;28;20468;-53
2023/05/24 02:45:19;;;;;;;2.05;0.80;;;14.10;99.90;;;;;;5098315;28;20486;-53
2023/05/24 02:47:46;;;;;;;2.10;0.80;;;14.00;99.90;;;;;;5099015;28;20422;-55
2023/05/24 02:50:13;;;;;;;2.90;0.90;;;14.00;99.90;;;;;;5099132;28;20524;-55
2023/05/24 02:52:41;;;;;;;1.40;0.80;;;14.00;99.90;;;;;;5098614;28;20418;-54
2023/05/24 02:55:09;;;;;;;3.83;0.80;;;14.00;99.90;;;;;;5098853;28;20922;-55
2023/05/24 02:57:36;;;;;;;2.30;0.90;;;13.90;99.90;;;;;;5098416;28;20418;-54
2023/05/24 03:00:05;;;;;;;2.97;0.85;;;13.90;99.90;;;;;;5097805;28;20491;-55
2023/05/24 03:02:32;;;;;;;1.50;0.80;;;13.90;99.90;;;;;;5097498;28;20779;-54
2023/05/24 03:05:00;;;;;;;3.40;0.90;;;13.90;99.90;;;;;;5098304;28;20838;-54
2023/05/24 03:07:27;;;;;;;1.75;0.80;;;13.90;99.90;;;;;;5098216;28;20508;-54
2023/05/24 03:09:55;;;;;;;1.63;0.83;;;13.90;99.90;;;;;;5097931;28;20425;-52
2023/05/24 03:12:22;;;;;;;3.38;0.90;;;13.90;99.90;;;;;;5097532;28;20421;-55
2023/05/24 03:14:49;;;;;;;1.38;0.90;;;13.80;99.90;;;;;;5097312;28;20430;-53
2023/05/24 03:17:16;;;;;;;2.07;0.80;;;13.70;99.90;;;;;;5097588;28;20825;-55
2023/05/24 03:19:43;;;;;;;2.15;0.80;;;13.60;99.90;;;;;;5097888;28;20490;-54
2023/05/24 03:22:10;;;;;;;1.30;0.80;;;13.50;99.90;;;;;;5096512;28;20422;-54
2023/05/24 03:24:37;;;;;;;3.00;0.98;;;13.60;99.90;;;;;;5096113;28;20425;-54
2023/05/24 03:27:07;;;;;;;1.40;0.80;;;13.60;99.90;;;;;;5096061;28;20432;-54
2023/05/24 03:29:34;;;;;;;2.65;0.90;;;13.70;99.90;;;;;;5097147;28;20437;-54
2023/05/24 03:32:01;;;;;;;2.58;0.80;;;13.70;99.90;;;;;;5096465;28;20479;-55
2023/05/24 03:34:29;;;;;;;1.70;0.88;;;13.80;99.90;;;;;;5097219;28;20426;-54
2023/05/24 03:36:56;;;;;;;1.75;0.80;;;13.70;99.90;;;;;;5095656;28;20516;-55
2023/05/24 03:39:23;;;;;;;1.60;0.80;;;13.80;99.90;;;;;;5093688;28;20483;-55
2023/05/24 03:41:50;;;;;;;2.60;0.90;;;13.70;99.90;;;;;;5097154;28;20413;-53
2023/05/24 03:44:18;;;;;;;1.80;0.90;;;13.70;99.90;;;;;;5097530;28;20487;-54
2023/05/24 03:46:45;;;;;;;1.70;0.80;;;13.60;99.90;;;;;;5096998;28;20424;-54
2023/05/24 03:49:12;;;;;;;4.45;0.90;;;13.60;99.90;;;;;;5096968;28;20426;-54
2023/05/24 03:51:39;;;;;;;2.95;0.90;;;13.40;99.90;;;;;;5097170;28;20421;-55
2023/05/24 03:54:06;;;;;;;2.50;0.90;;;13.20;99.90;;;;;;5097340;28;20426;-52
2023/05/24 03:56:33;;;;;;;3.03;1.00;;;13.10;99.90;;;;;;5097040;28;20426;-50
2023/05/24 03:59:02;;;;;;;2.20;0.90;;;13.20;99.90;;;;;;5096259;28;20434;-54
2023/05/24 04:01:31;;;;;;;2.92;0.80;;;13.30;99.90;;;;;;5095173;28;20457;-55
2023/05/24 04:04:00;;;;;;;2.90;0.80;;;13.30;99.90;;;;;;5096347;28;20877;-54
2023/05/24 04:06:28;;;;;;;1.80;0.80;;;13.40;99.90;;;;;;5096059;28;20421;-50
2023/05/24 04:08:56;;;;;;;2.45;0.80;;;13.50;99.90;;;;;;5097090;28;20433;-53
2023/05/24 04:11:26;;;;;;;1.55;1.00;;;13.60;99.90;;;;;;5096768;28;20916;-49
2023/05/24 04:13:55;;;;;;;2.20;1.00;;;13.40;99.90;;;;;;5097407;28;20509;-52
2023/05/24 04:16:24;;;;;;;2.50;0.90;;;13.20;99.90;;;;;;5096851;28;20418;-55
2023/05/24 04:18:53;;;;;;;2.60;1.00;;;13.10;99.90;;;;;;5096892;28;20426;-54
2023/05/24 04:21:20;;;;;;;2.70;0.98;;;13.00;99.90;;;;;;5096032;28;20494;-55
2023/05/24 04:23:47;;;;;;;2.53;0.90;;;13.00;99.90;;;;;;5095654;28;20485;-54
2023/05/24 04:26:15;;;;;;;1.58;0.90;;;13.00;99.90;;;;;;5096085;28;20794;-49
2023/05/24 04:28:42;;;;;;;2.45;1.00;;;13.10;99.90;;;;;;5096200;28;20430;-53
2023/05/24 04:31:09;;;;;;;1.55;0.90;;;13.20;99.90;;;;;;5096818;28;20525;-54
2023/05/24 04:33:38;;;;;;;1.40;0.90;;;13.20;99.90;;;;;;5095361;28;20438;-55
2023/05/24 04:36:07;;;;;;;3.83;0.90;;;13.30;99.90;;;;;;5094971;28;20426;-55
2023/05/24 04:38:34;;;;;;;2.97;0.90;;;13.20;99.90;;;;;;5095162;28;20422;-51
2023/05/24 04:41:02;;;;;;;2.03;0.90;;;13.10;99.90;;;;;;5094856;28;20414;-50
2023/05/24 04:43:29;;;;;;;1.73;0.98;;;13.00;99.90;;;;;;5095204;28;20456;-55
2023/05/24 04:45:56;;;;;;;2.35;0.90;;;12.80;99.90;;;;;;5093522;28;20787;-53
2023/05/24 04:48:23;;;;;;;3.55;1.00;;;12.80;99.90;;;;;;5093899;28;20751;-53
2023/05/24 04:50:51;;;;;;;1.45;1.00;;;12.80;99.90;;;;;;5095136;28;20880;-50
2023/05/24 04:53:20;;;;;;;3.28;1.00;;;12.90;99.90;;;;;;5094617;28;20725;-52
2023/05/24 04:55:47;;;;;;;3.00;0.90;;;13.00;99.90;;;;;;5093639;28;20857;-55
2023/05/24 04:58:15;;;;;;;2.97;1.20;;;13.20;99.90;;;;;;5093692;28;20418;-52
2023/05/24 05:00:42;;;;;;;1.67;0.90;;;13.40;99.90;;;;;;5094614;28;20471;-52
2023/05/24 05:03:09;;;;;;;1.98;1.00;;;13.40;99.90;;;;;;5095682;28;20854;-55
2023/05/24 05:05:37;;;;;;;4.20;1.00;;;13.40;99.90;;;;;;5095111;28;20486;-53
2023/05/24 05:08:04;;;;;;;2.20;0.90;;;13.30;99.90;;;;;;5095527;28;20414;-55
2023/05/24 05:10:32;;;;;;;2.70;1.10;;;13.20;99.90;;;;;;5095627;28;20506;-52
2023/05/24 05:12:59;;;;;;;1.92;1.00;;;13.20;99.90;;;;;;5094615;28;20832;-51
2023/05/24 05:15:26;;;;;;;3.40;0.90;;;13.20;99.90;;;;;;5094630;28;20452;-55
2023/05/24 05:17:53;;;;;;;3.20;1.00;;;13.30;99.90;;;;;;5094023;28;20433;-55
2023/05/24 05:20:20;;;;;;;3.53;1.00;;;13.50;99.90;;;;;;5093797;28;20433;-54
2023/05/24 05:22:47;;;;;;;2.33;0.85;;;13.70;99.90;;;;;;5091464;28;20429;-51
2023/05/24 05:25:14;;;;;;;3.90;1.10;;;13.70;99.90;;;;;;5095087;28;20542;-53
2023/05/24 05:27:44;;;;;;;2.20;0.80;;;13.70;99.90;;;;;;5094135;28;20421;-53
2023/05/24 05:30:12;;;;;;;2.70;0.90;;;13.70;99.90;;;;;;5093544;28;20425;-52
2023/05/24 05:32:39;;;;;;;3.00;0.95;;;13.60;99.90;;;;;;5094644;28;20549;-51
2023/05/24 05:35:07;;;;;;;1.50;0.80;;;13.70;99.90;;;;;;5094455;28;20435;-53
2023/05/24 05:37:34;;;;;;;1.50;0.80;;;13.70;99.90;;;;;;5091185;28;20418;-52
2023/05/24 05:40:02;;;;;;;2.67;0.90;;;13.90;99.90;;;;;;5092765;28;20766;-53
2023/05/24 05:42:29;;;;;;;2.50;1.00;;;14.00;99.90;;;;;;5093380;28;20421;-54
2023/05/24 05:44:58;;;;;;;3.42;0.80;;;13.90;99.90;;;;;;5092412;28;20429;-54
2023/05/24 05:47:25;;;;;;;2.72;0.90;;;14.00;99.90;;;;;;5093804;28;20418;-50
2023/05/24 05:49:52;;;;;;;3.22;0.90;;;14.00;99.90;;;;;;5093130;28;20426;-54
2023/05/24 05:52:19;;;;;;;1.50;0.80;;;13.80;99.90;;;;;;5092302;28;20472;-54
2023/05/24 05:54:45;;;;;;;3.60;0.90;;;13.50;99.90;;;;;;5093132;28;20448;-54
2023/05/24 05:57:13;;;;;;;1.92;0.70;;;13.30;99.90;;;;;;5093036;28;20834;-54
2023/05/24 05:59:40;;;;;;;2.20;0.90;;;13.50;99.90;;;;;;5092629;28;20425;-55
2023/05/24 06:02:08;;;;;;;2.60;0.90;;;13.60;99.90;;;;;;5091266;28;20857;-56
2023/05/24 06:04:35;;;;;;;2.60;0.88;;;13.70;99.90;;;;;;5091194;28;20498;-54
2023/05/24 06:07:02;;;;;;;3.78;0.90;;;13.50;99.90;;;;;;5091623;28;20852;-54
2023/05/24 06:09:29;;;;;;;2.10;0.88;;;13.60;99.90;;;;;;5091774;28;20425;-54
2023/05/24 06:11:56;;;;;;;2.17;0.93;;;13.70;99.90;;;;;;5092673;28;20414;-54
2023/05/24 06:14:23;;;;;;;1.83;0.80;;;13.60;99.90;;;;;;5093459;28;20455;-50
2023/05/24 06:16:51;;;;;;;2.80;0.90;;;13.50;99.90;;;;;;5090521;28;20422;-53
2023/05/24 06:19:19;;;;;;;4.97;1.10;;;13.50;99.90;;;;;;5089891;28;20508;-53
2023/05/24 06:21:49;;;;;;;3.03;0.88;;;13.60;99.90;;;;;;5091625;28;20422;-53
2023/05/24 06:24:19;;;;;;;3.97;0.88;;;13.80;99.90;;;;;;5093699;28;20472;-53
2023/05/24 06:26:46;;;;;;;4.13;0.90;;;14.00;99.90;;;;;;5092245;28;20428;-53
2023/05/24 06:29:13;;;;;;;3.30;0.90;;;14.10;99.90;;;;;;5091624;28;20628;-54
2023/05/24 06:31:41;;;;;;;4.40;0.90;;;14.20;99.90;;;;;;5090725;28;20440;-56
2023/05/24 06:34:08;;;;;;;7.50;1.00;;;14.20;99.90;;;;;;5091390;28;20763;-52
2023/05/24 06:36:40;;;;;;;3.00;0.90;;;14.40;99.90;;;;;;5091863;28;20444;-52
2023/05/24 06:39:07;;;;;;;2.20;0.90;;;14.30;99.90;;;;;;5091690;28;20421;-52
2023/05/24 06:41:35;;;;;;;3.30;1.00;;;14.00;99.90;;;;;;5091879;28;20422;-54
2023/05/24 06:44:02;;;;;;;2.58;0.80;;;14.00;99.90;;;;;;5090167;28;20483;-53
2023/05/24 06:46:29;;;;;;;4.50;0.90;;;13.90;99.90;;;;;;5090421;28;20418;-55
2023/05/24 06:48:56;;;;;;;1.83;1.00;;;13.70;99.90;;;;;;5087687;28;20437;-53
2023/05/24 06:51:23;;;;;;;2.65;0.90;;;13.60;99.90;;;;;;5090319;28;20604;-55
2023/05/24 06:53:52;;;;;;;2.70;1.05;;;13.70;99.90;;;;;;5091216;28;20926;-54
2023/05/24 06:56:20;;;;;;;3.47;1.10;;;13.70;99.90;;;;;;5086785;28;20696;-53
2023/05/24 06:58:47;;;;;;;2.30;0.90;;;13.60;99.90;;;;;;5089990;28;20731;-49
2023/05/24 07:01:15;;;;;;;2.70;0.90;;;13.60;99.90;;;;;;5089526;28;20449;-51
2023/05/24 07:03:42;;;;;;;3.15;0.90;;;13.60;99.90;;;;;;5082120;28;20443;-53
2023/05/24 07:06:12;;;;;;;4.70;0.90;;;13.90;99.90;;;;;;5069834;28;20427;-55
2023/05/24 07:08:40;;;;;;;3.80;0.98;;;14.00;99.90;;;;;;5072502;28;20704;-53
2023/05/24 07:11:08;;;;;;;2.75;1.20;;;14.00;99.90;;;;;;5091296;28;21137;-53
2023/05/24 07:13:35;;;;;;;2.10;0.90;;;14.10;99.90;;;;;;5086182;28;20431;-56
2023/05/24 07:16:02;;;;;;;3.57;1.10;;;14.20;99.90;;;;;;5090995;28;20853;-53
2023/05/24 07:18:30;;;;;;;1.80;1.00;;;14.40;99.90;;;;;;5087579;28;20483;-55
2023/05/24 07:20:58;;;;;;;3.50;1.10;;;14.30;99.90;;;;;;5095123;28;20413;-55
2023/05/24 07:23:25;;;;;;;6.40;1.00;;;14.20;99.90;;;;;;5091971;28;20876;-53
2023/05/24 07:25:52;;;;;;;4.65;0.90;;;14.20;99.90;;;;;;5092300;28;20410;-52
2023/05/24 07:28:21;;;;;;;3.42;1.00;;;14.30;99.90;;;;;;5092269;28;20428;-57
2023/05/24 07:30:48;;;;;;;3.80;1.00;;;14.40;99.90;;;;;;5094201;28;20457;-56
2023/05/24 07:33:15;;;;;;;3.38;0.90;;;14.40;99.90;;;;;;5094179;28;20879;-52
2023/05/24 07:35:44;;;;;;;3.92;1.00;;;14.40;99.90;;;;;;5072529;28;20419;-54
2023/05/24 07:38:11;;;;;;;2.10;0.90;;;14.50;99.90;;;;;;5078108;28;20520;-57
2023/05/24 07:40:38;;;;;;;3.20;0.90;;;14.40;99.90;;;;;;5091917;28;20764;-54
2023/05/24 07:43:05;;;;;;;3.53;1.00;;;14.30;99.90;;;;;;5094509;28;20418;-54
2023/05/24 07:45:33;;;;;;;1.80;0.90;;;14.30;99.90;;;;;;5086935;28;20434;-53
2023/05/24 07:48:01;;;;;;;3.60;0.90;;;14.40;99.90;;;;;;5082642;28;20490;-51
2023/05/24 07:50:28;;;;;;;1.70;0.90;;;14.60;99.90;;;;;;5090261;28;20636;-53
2023/05/24 07:52:56;;;;;;;4.57;1.00;;;14.60;99.90;;;;;;5090518;28;20433;-52
2023/05/24 07:55:23;;;;;;;1.98;1.10;;;14.50;99.90;;;;;;5091242;28;20754;-55
2023/05/24 07:57:50;;;;;;;2.70;0.90;;;14.60;99.90;;;;;;5092806;28;20754;-55
2023/05/24 08:00:19;;;;;;;1.65;0.82;;;14.60;99.90;;;;;;5091922;28;20501;-55
2023/05/24 08:02:47;;;;;;;2.30;0.90;;;14.90;99.90;;;;;;5091296;28;20713;-56
2023/05/24 08:05:15;;;;;;;2.97;0.90;;;14.90;99.90;;;;;;5090076;28;20933;-53
2023/05/24 08:07:42;;;;;;;2.10;1.00;;;14.90;99.90;;;;;;5093436;28;20421;-58
2023/05/24 08:10:11;;;;;;;2.35;1.00;;;14.90;99.90;;;;;;5082703;28;20443;-56
2023/05/24 08:12:38;;;;;;;2.70;1.00;;;14.90;99.90;;;;;;5088156;28;21029;-55
2023/05/24 08:15:06;;;;;;;2.35;0.98;;;15.20;99.90;;;;;;5091695;28;20445;-58
2023/05/24 08:17:33;;;;;;;2.50;1.00;;;15.10;99.90;;;;;;5092703;28;20490;-56
2023/05/24 08:20:03;;;;;;;2.10;0.90;;;14.90;99.90;;;;;;5088767;28;20535;-54
2023/05/24 08:22:30;;;;;;;2.67;0.90;;;15.00;99.90;;;;;;5090515;28;20434;-57
2023/05/24 08:24:58;;;;;;;3.60;1.20;;;14.90;99.90;;;;;;5090994;28;20430;-57
2023/05/24 08:27:27;;;;;;;2.35;1.30;;;15.00;99.90;;;;;;5090069;28;20427;-59
2023/05/24 08:29:54;;;;;;;3.00;0.98;;;14.80;99.90;;;;;;5092209;28;20441;-55
2023/05/24 08:32:21;;;;;;;3.28;1.10;;;14.80;99.90;;;;;;5090005;28;20434;-56
2023/05/24 08:34:48;;;;;;;3.42;1.00;;;14.80;99.90;;;;;;5092886;28;20445;-58
2023/05/24 08:37:19;;;;;;;2.63;0.90;;;15.00;99.90;;;;;;5093452;28;20418;-56
2023/05/24 08:39:46;;;;;;;3.25;1.00;;;15.00;99.90;;;;;;5091893;28;20429;-58
2023/05/24 08:42:13;;;;;;;3.20;1.00;;;15.00;99.90;;;;;;5092773;28;20434;-57
2023/05/24 08:44:46;;;;;;;2.30;0.90;;;15.10;99.90;;;;;;5091226;28;20452;-58
2023/05/24 08:47:14;;;;;;;1.30;0.82;;;15.20;99.90;;;;;;5094676;28;20470;-58
2023/05/24 08:49:41;;;;;;;2.17;0.95;;;15.40;99.90;;;;;;5089442;28;20438;-58
2023/05/24 08:52:12;;;;;;;2.67;1.10;;;15.40;99.90;;;;;;5086384;28;20787;-59
2023/05/24 08:54:40;;;;;;;3.30;0.90;;;15.40;99.90;;;;;;5078789;28;20428;-59
2023/05/24 08:57:09;;;;;;;2.70;1.00;;;15.60;99.90;;;;;;5075471;28;20476;-58
2023/05/24 08:59:36;;;;;;;4.03;2.70;;;15.50;99.90;;;;;;5071201;28;20442;-58
2023/05/24 09:02:05;;;;;;;3.42;1.10;;;15.70;99.90;;;;;;5081519;28;20865;-58
2023/05/24 09:04:35;;;;;;;2.80;1.20;;;15.80;99.90;;;;;;5090697;28;20434;-58
2023/05/24 09:07:02;;;;;;;3.17;0.90;;;15.90;99.90;;;;;;5092987;28;21101;-58
2023/05/24 09:09:30;;;;;;;6.07;1.63;;;15.90;99.90;;;;;;5093134;28;20438;-59
2023/05/24 09:12:04;;;;;;;3.05;0.90;;;16.00;99.90;;;;;;5092262;28;20511;-59
2023/05/24 09:14:31;;;;;;;2.80;0.90;;;15.80;99.90;;;;;;5081853;28;20865;-59
2023/05/24 09:16:59;;;;;;;3.38;1.00;;;15.60;99.90;;;;;;5091611;28;20786;-59
2023/05/24 09:19:27;;;;;;;2.80;0.98;;;15.50;99.90;;;;;;5088598;28;20491;-59
2023/05/24 09:21:56;;;;;;;2.70;0.98;;;15.40;99.90;;;;;;5092315;28;20903;-59
2023/05/24 09:24:23;;;;;;;2.58;0.85;;;15.20;99.90;;;;;;5091288;28;20611;-59
2023/05/24 09:26:50;;;;;;;3.20;1.50;;;15.10;99.90;;;;;;5091100;28;20414;-60
2023/05/24 09:29:23;;;;;;;3.33;0.90;;;15.00;99.90;;;;;;5089487;28;20516;-59
2023/05/24 09:31:50;;;;;;;3.15;0.90;;;14.90;99.90;;;;;;5086544;28;20429;-59
2023/05/24 09:34:17;;;;;;;2.20;0.90;;;15.00;99.90;;;;;;5091933;28;20509;-59
2023/05/24 09:36:48;;;;;;;2.10;1.00;;;15.00;99.90;;;;;;5090337;28;20422;-59
2023/05/24 09:39:15;;;;;;;3.75;1.00;;;14.80;99.90;;;;;;5093669;28;20508;-58
2023/05/24 09:41:44;;;;;;;3.80;1.08;;;14.90;99.90;;;;;;5077263;28;20838;-58
2023/05/24 09:44:14;;;;;;;2.58;1.00;;;15.10;99.90;;;;;;5073875;28;20522;-59
2023/05/24 09:46:42;;;;;;;2.58;1.00;;;15.00;99.90;;;;;;5086754;28;20524;-59
2023/05/24 09:49:09;;;;;;;1.60;0.90;;;15.00;99.90;;;;;;5092202;28;20437;-59
2023/05/24 09:51:39;;;;;;;1.27;1.00;;;14.90;99.90;;;;;;5088018;28;20714;-59
2023/05/24 09:54:06;;;;;;;3.00;1.10;;;15.00;99.90;;;;;;5088496;28;20433;-59
2023/05/24 09:56:34;;;;;;;4.18;1.00;;;15.00;99.90;;;;;;5090560;28;20445;-59
2023/05/24 09:59:07;;;;;;;3.00;1.00;;;15.00;99.90;;;;;;5091260;28;20429;-60
2023/05/24 10:01:35;;;;;;;2.70;1.25;;;15.00;99.90;;;;;;5090640;28;20490;-60
2023/05/24 10:04:05;;;;;;;1.90;1.10;;;14.90;99.90;;;;;;5090711;28;20430;-60
2023/05/24 10:06:36;;;;;;;3.70;1.10;;;14.50;99.90;;;;;;5091767;28;20709;-59
2023/05/24 10:09:06;;;;;;;4.83;1.30;;;14.60;99.90;;;;;;5087374;28;20914;-60
2023/05/24 10:11:35;;;;;;;3.28;0.90;;;14.70;99.90;;;;;;5083114;28;20484;-58
2023/05/24 10:14:04;;;;;;;3.25;1.10;;;14.70;99.90;;;;;;5080374;28;20438;-59
2023/05/24 10:16:31;;;;;;;3.30;1.00;;;14.50;99.90;;;;;;5091839;28;20420;-59
2023/05/24 10:18:59;;;;;;;5.22;1.50;;;14.40;99.90;;;;;;5089790;28;20784;-59
2023/05/24 10:21:31;;;;;;;3.08;1.10;;;14.50;99.90;;;;;;5077457;28;20843;-59
2023/05/24 10:24:01;;;;;;;3.40;1.30;;;14.50;99.90;;;;;;5070105;28;20743;-59
2023/05/24 10:26:32;;;;;;;2.20;1.20;;;14.40;99.90;;;;;;5068207;28;20427;-59
2023/05/24 10:29:04;;;;;;;1.87;1.10;;;14.50;99.90;;;;;;5084187;28;20752;-58
2023/05/24 10:31:34;;;;;;;2.83;1.00;;;14.50;99.90;;;;;;5090615;28;20433;-58
2023/05/24 10:34:03;;;;;;;2.90;1.00;;;14.40;99.90;;;;;;5088337;28;20503;-58
2023/05/24 10:36:33;;;;;;;4.15;1.08;;;14.30;99.90;;;;;;5090957;28;20418;-58
2023/05/24 10:39:00;;;;;;;3.40;0.82;;;14.40;99.90;;;;;;5089792;28;20471;-58
2023/05/24 10:41:27;;;;;;;2.10;1.00;;;14.40;99.90;;;;;;5085765;28;20440;-59
2023/05/24 10:43:58;;;;;;;3.88;1.20;;;14.30;99.90;;;;;;5092162;28;20524;-60
2023/05/24 10:46:25;;;;;;;3.40;1.00;;;14.40;99.90;;;;;;5091757;28;20470;-59
2023/05/24 10:49:03;;;;;;;2.90;1.00;;;14.70;99.90;;;;;;5094320;28;20491;-60
2023/05/24 10:51:34;;;;;;;4.20;1.10;;;14.80;99.90;;;;;;5091346;28;20432;-59
2023/05/24 10:54:18;;;;;;;4.20;1.10;;;14.80;99.90;;;;;;5093431;28;20433;-58
2023/05/24 10:56:47;;;;;;;3.50;0.98;;;14.90;99.90;;;;;;5094694;28;20475;-58
2023/05/24 10:59:28;;;;;;;3.60;0.90;;;15.10;99.90;;;;;;5093267;28;20742;-58
2023/05/24 11:01:56;;;;;;;2.70;1.00;;;15.30;99.90;;;;;;5091989;28;20471;-58
2023/05/24 11:04:26;;;;;;;3.47;1.10;;;15.50;99.90;;;;;;5093302;28;20422;-60
2023/05/24 11:07:02;;;;;;;4.20;1.00;;;15.50;99.90;;;;;;5094331;28;20431;-60
2023/05/24 11:09:29;;;;;;;1.90;0.90;;;15.60;99.90;;;;;;5095201;28;20817;-59
2023/05/24 11:12:00;;;;;;;4.38;1.10;;;15.70;99.90;;;;;;5092595;28;20429;-60
2023/05/24 11:14:29;;;;;;;4.63;1.00;;;15.60;99.90;;;;;;5095196;28;20476;-60
2023/05/24 11:16:56;;;;;;;4.75;1.08;;;15.50;99.90;;;;;;5093974;28;20414;-59
2023/05/24 11:19:28;;;;;;;2.80;1.00;;;15.70;99.90;;;;;;5093080;28;20428;-60
2023/05/24 11:21:58;;;;;;;5.25;1.10;;;15.50;99.90;;;;;;5091262;28;20433;-59
2023/05/24 11:24:27;;;;;;;3.97;1.40;;;15.60;99.90;;;;;;5093267;28;20503;-59
2023/05/24 11:26:55;;;;;;;5.78;1.10;;;15.60;99.90;;;;;;5093452;28;20660;-59
2023/05/24 11:29:23;;;;;;;3.60;3.08;;;15.90;99.90;;;;;;5092887;28;20572;-59
2023/05/24 11:31:51;;;;;;;5.00;1.17;;;16.00;99.90;;;;;;5093622;28;20879;-60
2023/05/24 11:34:18;;;;;;;5.17;1.30;;;16.00;99.90;;;;;;5094892;28;20433;-59
2023/05/24 11:36:46;;;;;;;2.85;1.30;;;16.10;99.90;;;;;;5091426;28;20438;-59
2023/05/24 11:39:15;;;;;;;7.07;4.28;;;16.10;99.90;;;;;;5092285;28;20499;-59
2023/05/24 11:41:42;;;;;;;3.55;1.30;;;16.30;99.90;;;;;;5090706;28;20861;-59
2023/05/24 11:44:10;;;;;;;2.33;1.10;;;16.50;99.90;;;;;;5092168;28;20417;-60
2023/05/24 11:46:39;;;;;;;2.23;1.17;;;16.70;99.90;;;;;;5093631;28;20475;-59
2023/05/24 11:49:06;;;;;;;3.38;1.00;;;16.90;99.90;;;;;;5095457;28;20425;-59
2023/05/24 11:51:34;;;;;;;2.92;1.10;;;17.00;99.90;;;;;;5087653;28;20462;-58
2023/05/24 11:54:01;;;;;;;2.78;0.98;;;17.20;99.90;;;;;;5093668;28;20507;-60
2023/05/24 11:56:31;;;;;;;3.60;1.40;;;17.50;99.90;;;;;;5093844;28;20495;-60
2023/05/24 11:59:08;;;;;;;2.50;0.90;;;18.10;99.90;;;;;;5091946;28;20441;-60
2023/05/24 12:01:36;;;;;;;2.70;0.90;;;18.20;99.90;;;;;;5092147;28;20471;-61
2023/05/24 12:04:06;;;;;;;2.80;1.00;;;18.30;99.90;;;;;;5092637;28;20470;-60
2023/05/24 12:06:37;;;;;;;3.50;1.00;;;18.50;99.90;;;;;;5093812;28;20510;-60
2023/05/24 12:09:12;;;;;;;2.70;1.00;;;18.50;99.90;;;;;;5092349;28;20445;-59
2023/05/24 12:11:41;;;;;;;1.08;0.93;;;18.50;99.90;;;;;;5093059;28;20425;-60
2023/05/24 12:14:11;;;;;;;2.15;0.80;;;18.20;99.90;;;;;;5090132;28;20430;-59
2023/05/24 12:16:39;;;;;;;3.42;0.90;;;18.50;99.90;;;;;;5071758;28;20723;-60
2023/05/24 12:19:06;;;;;;;3.40;0.90;;;18.60;99.90;;;;;;5076351;28;20926;-60
2023/05/24 12:21:35;;;;;;;2.22;0.90;;;18.90;99.90;;;;;;5091368;28;20454;-59
2023/05/24 12:24:09;;;;;;;4.60;1.00;;;19.20;99.90;;;;;;5090152;28;20434;-59
2023/05/24 12:26:37;;;;;;;3.03;1.00;;;19.30;99.90;;;;;;5074090;28;20449;-59
2023/05/24 12:29:06;;;;;;;3.47;1.00;;;19.40;99.90;;;;;;5072678;28;20493;-59
2023/05/24 12:31:36;;;;;;;1.30;0.90;;;19.70;99.90;;;;;;5080874;28;20422;-59
2023/05/24 12:34:05;;;;;;;2.60;0.90;;;19.40;99.90;;;;;;5091132;28;20437;-59
2023/05/24 12:36:33;;;;;;;2.60;0.80;;;19.40;99.90;;;;;;5094352;28;20915;-60
2023/05/24 12:39:00;;;;;;;2.03;0.90;;;18.90;99.90;;;;;;5093840;28;20430;-60
2023/05/24 12:41:31;;;;;;;2.08;1.00;;;18.80;99.90;;;;;;5092089;28;20485;-61
2023/05/24 12:43:58;;;;;;;2.55;0.90;;;19.40;99.90;;;;;;5090856;28;20425;-61
2023/05/24 12:46:27;;;;;;;2.35;0.85;;;19.80;99.20;;;;;;5082175;28;20434;-61
2023/05/24 12:48:54;;;;;;;1.90;1.00;;;20.00;96.00;;;;;;5078703;28;20904;-63
2023/05/24 12:51:20;;;;;;;2.30;0.90;;;19.90;95.20;;;;;;5086528;28;20428;-63
2023/05/24 12:53:47;;;;;;;2.30;0.90;;;19.90;95.50;;;;;;5090645;28;20434;-63